createdAt,value
2022-08-30T00:00:07.216Z,5.88
2022-08-30T00:02:35.510Z,5.83
2022-08-30T00:05:04.060Z,5.80
2022-08-30T00:07:31.638Z,6.05
2022-08-30T00:10:01.803Z,5.55
2022-08-30T00:12:31.871Z,5.70
2022-08-30T00:14:59.783Z,5.95
2022-08-30T00:17:27.300Z,5.90
2022-08-30T00:19:56.111Z,6.53
2022-08-30T00:22:26.403Z,5.88
2022-08-30T00:24:55.161Z,6.15
2022-08-30T00:27:22.790Z,5.30
2022-08-30T00:29:53.727Z,6.18
2022-08-30T00:32:21.939Z,6.05
2022-08-30T00:34:51.658Z,6.25
2022-08-30T00:37:20.171Z,6.25
2022-08-30T00:39:48.439Z,6.93
2022-08-30T00:42:17.598Z,6.85
2022-08-30T00:44:45.853Z,6.55
2022-08-30T00:47:17.494Z,6.75
2022-08-30T00:49:49.721Z,6.00
2022-08-30T00:52:20.945Z,6.40
2022-08-30T00:54:51.110Z,6.28
2022-08-30T00:57:19.464Z,6.93
2022-08-30T00:59:49.769Z,7.20
2022-08-30T01:02:22.822Z,7.57
2022-08-30T01:04:54.332Z,10.50
2022-08-30T01:07:22.106Z,9.45
2022-08-30T01:09:49.759Z,8.80
2022-08-30T01:12:17.755Z,7.97
2022-08-30T01:14:50.554Z,8.32
2022-08-30T01:17:21.285Z,6.55
2022-08-30T01:20:08.923Z,6.05
2022-08-30T01:22:51.379Z,6.68
2022-08-30T01:25:28.812Z,7.38
2022-08-30T01:28:04.503Z,8.20
2022-08-30T01:30:33.715Z,7.88
2022-08-30T01:33:04.715Z,6.90
2022-08-30T01:35:46.215Z,7.95
2022-08-30T01:38:15.960Z,7.25
2022-08-30T01:40:43.959Z,7.60
2022-08-30T01:43:14.048Z,8.30
2022-08-30T01:45:42.068Z,6.85
2022-08-30T01:48:12.992Z,7.25
2022-08-30T01:50:41.770Z,6.32
2022-08-30T01:53:13.155Z,6.25
2022-08-30T01:55:42.419Z,5.90
2022-08-30T01:58:10.176Z,5.63
2022-08-30T02:00:38.825Z,6.22
2022-08-30T02:03:07.036Z,6.78
2022-08-30T02:05:34.845Z,7.65
2022-08-30T02:08:03.655Z,7.80
2022-08-30T02:10:31.409Z,7.90
2022-08-30T02:13:03.180Z,7.38
2022-08-30T02:15:30.839Z,7.28
2022-08-30T02:18:01.771Z,7.40
2022-08-30T02:20:29.332Z,7.32
2022-08-30T02:23:00.853Z,7.53
2022-08-30T02:25:28.957Z,7.72
2022-08-30T02:27:56.591Z,7.35
2022-08-30T02:30:24.249Z,6.00
2022-08-30T02:32:52.476Z,7.25
2022-08-30T02:35:19.969Z,7.40
2022-08-30T02:37:47.510Z,6.35
2022-08-30T02:40:15.129Z,6.43
2022-08-30T02:42:42.737Z,7.95
2022-08-30T02:45:10.882Z,6.38
2022-08-30T02:47:38.412Z,6.18
2022-08-30T02:50:07.810Z,6.93
2022-08-30T02:52:35.299Z,6.10
2022-08-30T02:55:04.365Z,6.70
2022-08-30T02:57:31.956Z,6.22
2022-08-30T02:59:59.744Z,6.90
2022-08-30T03:02:30.429Z,7.15
2022-08-30T03:04:57.988Z,6.97
2022-08-30T03:07:25.494Z,7.35
2022-08-30T03:09:53.030Z,6.53
2022-08-30T03:12:20.752Z,6.45
2022-08-30T03:14:48.605Z,7.40
2022-08-30T03:17:18.427Z,5.68
2022-08-30T03:19:46.726Z,7.13
2022-08-30T03:22:14.266Z,6.70
2022-08-30T03:24:41.763Z,6.57
2022-08-30T03:27:09.767Z,7.57
2022-08-30T03:29:37.504Z,6.80
2022-08-30T03:32:12.331Z,6.85
2022-08-30T03:34:40.261Z,6.55
2022-08-30T03:37:08.351Z,6.82
2022-08-30T03:39:41.694Z,6.88
2022-08-30T03:42:12.048Z,6.75
2022-08-30T03:44:39.990Z,5.85
2022-08-30T03:47:08.580Z,7.85
2022-08-30T03:49:36.295Z,7.18
2022-08-30T03:52:06.926Z,6.75
2022-08-30T03:54:34.495Z,6.85
2022-08-30T03:57:04.079Z,7.65
2022-08-30T03:59:31.679Z,7.15
2022-08-30T04:01:59.490Z,7.28
2022-08-30T04:04:27.228Z,7.03
2022-08-30T04:06:55.535Z,6.82
2022-08-30T04:09:23.591Z,7.15
2022-08-30T04:11:51.359Z,7.90
2022-08-30T04:14:19.090Z,7.32
2022-08-30T04:16:46.721Z,7.63
2022-08-30T04:19:14.353Z,7.68
2022-08-30T04:21:42.746Z,7.57
2022-08-30T04:24:13.992Z,8.18
2022-08-30T04:26:41.817Z,8.20
2022-08-30T04:29:12.430Z,8.50
2022-08-30T04:31:40.087Z,8.05
2022-08-30T04:34:10.709Z,8.57
2022-08-30T04:36:38.747Z,8.25
2022-08-30T04:39:13.528Z,8.32
2022-08-30T04:41:43.528Z,8.90
2022-08-30T04:44:19.192Z,9.43
2022-08-30T04:46:48.087Z,9.75
2022-08-30T04:49:15.694Z,9.35
2022-08-30T04:51:43.305Z,9.50
2022-08-30T04:54:10.988Z,10.25
2022-08-30T04:56:39.175Z,10.23
2022-08-30T04:59:06.837Z,10.43
2022-08-30T05:01:44.545Z,9.57
2022-08-30T05:04:15.095Z,10.25
2022-08-30T05:06:43.474Z,10.07
2022-08-30T05:09:11.449Z,11.43
2022-08-30T05:11:39.014Z,11.65
2022-08-30T05:14:06.691Z,10.63
2022-08-30T05:16:34.477Z,10.52
2022-08-30T05:19:02.093Z,10.15
2022-08-30T05:21:29.726Z,10.70
2022-08-30T05:23:59.975Z,10.70
2022-08-30T05:26:30.263Z,9.60
2022-08-30T05:28:58.505Z,10.35
2022-08-30T05:31:33.182Z,10.13
2022-08-30T05:34:05.363Z,10.77
2022-08-30T05:36:36.249Z,10.60
2022-08-30T05:39:06.003Z,10.05
2022-08-30T05:41:34.126Z,10.63
2022-08-30T05:44:03.161Z,9.88
2022-08-30T05:49:07.827Z,10.50
2022-08-30T05:51:42.857Z,9.40
2022-08-30T05:54:13.269Z,10.07
2022-08-30T05:56:42.413Z,9.93
2022-08-30T05:59:10.209Z,9.98
2022-08-30T06:01:47.734Z,10.25
2022-08-30T06:04:15.716Z,10.80
2022-08-30T06:06:44.593Z,10.15
2022-08-30T06:09:13.735Z,10.30
2022-08-30T06:11:41.875Z,10.48
2022-08-30T06:14:09.608Z,9.43
2022-08-30T06:16:39.422Z,10.35
2022-08-30T06:19:08.915Z,9.75
2022-08-30T06:21:37.695Z,9.60
2022-08-30T06:24:07.307Z,9.30
2022-08-30T06:26:45.554Z,9.80
2022-08-30T06:29:16.772Z,9.50
2022-08-30T06:31:44.822Z,9.65
2022-08-30T06:34:12.408Z,8.63
2022-08-30T06:36:40.866Z,9.27
2022-08-30T06:39:09.002Z,8.43
2022-08-30T06:41:38.939Z,8.73
2022-08-30T06:44:15.440Z,8.63
2022-08-30T06:46:43.074Z,8.68
2022-08-30T06:49:10.628Z,8.82
2022-08-30T06:51:39.963Z,8.48
2022-08-30T06:54:10.862Z,8.10
2022-08-30T06:56:55.221Z,8.55
2022-08-30T06:59:26.936Z,7.43
2022-08-30T07:01:55.851Z,8.25
2022-08-30T07:04:24.197Z,8.60
2022-08-30T07:06:51.742Z,8.20
2022-08-30T07:09:19.786Z,8.05
2022-08-30T07:11:51.786Z,7.50
2022-08-30T07:14:20.724Z,7.75
2022-08-30T07:16:51.282Z,9.05
2022-08-30T07:19:21.348Z,7.60
2022-08-30T07:21:49.933Z,8.63
2022-08-30T07:24:18.714Z,8.65
2022-08-30T07:26:50.008Z,8.00
2022-08-30T07:29:18.646Z,8.55
2022-08-30T07:31:46.513Z,8.45
2022-08-30T07:34:13.969Z,8.70
2022-08-30T07:36:41.447Z,9.18
2022-08-30T07:39:09.959Z,8.98
2022-08-30T07:41:41.124Z,9.13
2022-08-30T07:44:09.162Z,9.05
2022-08-30T07:46:39.926Z,8.20
2022-08-30T07:49:11.317Z,8.43
2022-08-30T07:51:40.269Z,9.77
2022-08-30T07:54:09.243Z,8.48
2022-08-30T07:56:45.538Z,9.77
2022-08-30T07:59:13.021Z,8.02
2022-08-30T08:01:42.852Z,9.55
2022-08-30T08:04:13.256Z,9.10
2022-08-30T08:06:41.355Z,8.25
2022-08-30T08:09:09.501Z,8.38
2022-08-30T08:11:37.150Z,8.00
2022-08-30T08:14:04.758Z,7.60
2022-08-30T08:16:37.168Z,8.20
2022-08-30T08:19:09.118Z,8.18
2022-08-30T08:21:39.987Z,8.55
2022-08-30T08:24:08.087Z,8.23
2022-08-30T08:26:40.981Z,7.68
2022-08-30T08:29:13.208Z,9.75
2022-08-30T08:31:41.843Z,8.93
2022-08-30T08:34:11.723Z,8.52
2022-08-30T08:36:40.481Z,8.65
2022-08-30T08:39:09.665Z,7.28
2022-08-30T08:41:49.271Z,8.00
2022-08-30T08:44:22.906Z,7.93
2022-08-30T08:46:59.109Z,8.20
2022-08-30T08:49:26.954Z,8.38
2022-08-30T08:52:14.079Z,7.30
2022-08-30T08:54:56.388Z,6.72
2022-08-30T08:57:33.587Z,6.45
2022-08-30T09:00:03.331Z,7.53
2022-08-30T09:03:04.437Z,10.23
2022-08-30T09:05:38.562Z,11.38
2022-08-30T09:08:11.709Z,7.57
2022-08-30T09:10:50.317Z,8.10
2022-08-30T09:13:22.743Z,8.35
2022-08-30T09:15:56.610Z,7.97
2022-08-30T09:18:52.580Z,7.40
2022-08-30T09:21:26.768Z,7.95
2022-08-30T09:24:04.708Z,12.55
2022-08-30T09:26:36.267Z,9.00
2022-08-30T09:29:06.139Z,10.80
2022-08-30T09:32:10.142Z,9.55
2022-08-30T09:34:43.766Z,9.00
2022-08-30T09:37:29.842Z,8.65
2022-08-30T09:39:58.276Z,9.30
2022-08-30T09:42:29.798Z,8.40
2022-08-30T09:45:10.579Z,8.98
2022-08-30T09:47:43.223Z,9.13
2022-08-30T09:50:14.785Z,9.20
2022-08-30T09:53:12.299Z,8.77
2022-08-30T09:56:27.198Z,9.60
2022-08-30T09:59:11.182Z,9.95
2022-08-30T10:02:14.143Z,9.57
2022-08-30T10:05:00.338Z,9.95
2022-08-30T10:08:06.306Z,9.82
2022-08-30T10:10:45.231Z,9.27
2022-08-30T10:13:33.779Z,10.32
2022-08-30T10:16:25.796Z,9.65
2022-08-30T10:19:04.158Z,9.82
2022-08-30T10:22:10.845Z,10.05
2022-08-30T10:24:43.967Z,9.85
2022-08-30T10:27:18.441Z,9.98
2022-08-30T10:29:59.740Z,10.23
2022-08-30T10:32:39.720Z,10.55
2022-08-30T10:35:19.613Z,11.48
2022-08-30T10:37:56.131Z,10.27
2022-08-30T10:40:42.284Z,10.32
2022-08-30T10:43:26.256Z,11.18
2022-08-30T10:45:57.225Z,10.80
2022-08-30T10:48:33.805Z,11.48
2022-08-30T10:51:11.598Z,10.63
2022-08-30T10:53:51.160Z,10.82
2022-08-30T10:56:24.540Z,11.88
2022-08-30T10:58:59.232Z,10.93
2022-08-30T11:01:36.319Z,10.77
2022-08-30T11:04:32.061Z,10.88
2022-08-30T11:07:26.877Z,10.10
2022-08-30T11:10:20.300Z,10.23
2022-08-30T11:12:58.584Z,11.10
2022-08-30T11:15:34.618Z,10.90
2022-08-30T11:18:10.793Z,10.90
2022-08-30T11:20:50.927Z,10.20
2022-08-30T11:23:36.483Z,10.10
2022-08-30T11:28:46.356Z,9.82
2022-08-30T11:31:23.572Z,10.18
2022-08-30T11:34:00.946Z,8.98
2022-08-30T11:36:28.730Z,8.47
2022-08-30T11:39:41.847Z,8.13
2022-08-30T11:42:29.403Z,8.07
2022-08-30T11:45:25.507Z,8.63
2022-08-30T11:48:00.054Z,7.93
2022-08-30T11:51:14.177Z,9.13
2022-08-30T11:53:55.686Z,8.65
2022-08-30T11:56:37.850Z,9.80
2022-08-30T11:59:26.110Z,9.43
2022-08-30T12:01:57.261Z,9.25
2022-08-30T12:04:56.337Z,9.35
2022-08-30T12:07:57.507Z,8.73
2022-08-30T12:10:41.790Z,9.15
2022-08-30T12:13:35.024Z,8.95
2022-08-30T12:16:12.247Z,9.10
2022-08-30T12:19:06.689Z,9.43
2022-08-30T12:21:45.111Z,8.60
2022-08-30T12:24:26.371Z,8.32
2022-08-30T12:26:54.773Z,8.32
2022-08-30T12:29:31.069Z,8.00
2022-08-30T12:32:05.394Z,7.63
2022-08-30T12:34:50.940Z,8.13
2022-08-30T12:37:33.763Z,7.40
2022-08-30T12:40:06.676Z,6.70
2022-08-30T12:42:37.836Z,6.55
2022-08-30T12:45:13.090Z,6.25
2022-08-30T12:47:49.456Z,6.55
2022-08-30T12:50:22.306Z,7.40
2022-08-30T12:53:21.989Z,6.78
2022-08-30T12:56:49.950Z,7.13
2022-08-30T13:00:05.787Z,8.67
2022-08-30T13:02:52.236Z,8.35
2022-08-30T13:05:44.347Z,8.32
2022-08-30T13:08:18.830Z,7.47
2022-08-30T13:11:07.328Z,6.15
2022-08-30T13:13:45.805Z,5.97
2022-08-30T13:16:23.002Z,7.45
2022-08-30T13:18:53.527Z,6.63
2022-08-30T13:21:47.256Z,7.47
2022-08-30T13:24:17.119Z,7.18
2022-08-30T13:26:45.394Z,7.70
2022-08-30T13:29:26.116Z,7.82
2022-08-30T13:31:57.102Z,7.47
2022-08-30T13:34:27.956Z,7.70
2022-08-30T13:36:58.017Z,8.45
2022-08-30T13:39:26.369Z,9.13
2022-08-30T13:42:31.342Z,9.35
2022-08-30T13:44:47.923Z,9.52
2022-08-30T13:47:33.259Z,10.63
2022-08-30T13:50:04.229Z,12.00
2022-08-30T13:52:31.771Z,8.88
2022-08-30T13:54:59.399Z,8.65
2022-08-30T14:00:21.778Z,6.80
2022-08-30T14:02:54.467Z,7.03
2022-08-30T14:06:15.562Z,6.90
2022-08-30T14:08:46.426Z,7.20
2022-08-30T14:11:20.956Z,6.28
2022-08-30T14:16:43.250Z,6.40
2022-08-30T14:19:12.933Z,6.32
2022-08-30T14:21:40.962Z,4.57
2022-08-30T14:24:09.378Z,5.78
2022-08-30T14:26:39.783Z,5.78
2022-08-30T14:29:10.205Z,5.35
2022-08-30T14:31:40.015Z,5.00
2022-08-30T14:34:09.333Z,4.35
2022-08-30T14:36:42.088Z,6.55
2022-08-30T14:39:14.628Z,4.80
2022-08-30T14:41:46.286Z,4.43
2022-08-30T14:44:15.141Z,4.15
2022-08-30T14:46:44.356Z,4.20
2022-08-30T14:49:13.409Z,4.35
2022-08-30T14:51:42.122Z,4.35
2022-08-30T14:54:10.153Z,3.78
2022-08-30T14:56:54.722Z,4.28
2022-08-30T14:59:25.522Z,4.45
2022-08-30T15:01:53.222Z,4.30
2022-08-30T15:04:21.643Z,3.88
2022-08-30T15:06:50.425Z,4.30
2022-08-30T15:09:26.061Z,4.97
2022-08-30T15:11:58.715Z,4.77
2022-08-30T15:14:28.097Z,5.72
2022-08-30T15:16:58.360Z,5.30
2022-08-30T15:19:26.829Z,5.05
2022-08-30T15:21:54.686Z,5.43
2022-08-30T15:24:29.495Z,5.70
2022-08-30T15:27:01.030Z,5.93
2022-08-30T15:29:30.673Z,5.28
2022-08-30T15:32:01.188Z,4.93
2022-08-30T15:34:29.375Z,6.70
2022-08-30T15:36:57.871Z,4.75
2022-08-30T15:39:25.545Z,4.55
2022-08-30T15:41:55.930Z,4.65
2022-08-30T15:44:27.353Z,5.00
2022-08-30T15:46:54.960Z,4.57
2022-08-30T15:49:24.483Z,4.97
2022-08-30T15:51:54.082Z,5.28
2022-08-30T15:54:23.873Z,5.20
2022-08-30T15:56:59.242Z,4.88
2022-08-30T15:59:29.191Z,4.35
2022-08-30T16:01:59.969Z,5.38
2022-08-30T16:04:27.611Z,5.05
2022-08-30T16:06:55.498Z,4.65
2022-08-30T16:09:23.325Z,4.60
2022-08-30T16:11:50.978Z,5.63
2022-08-30T16:14:21.255Z,4.68
2022-08-30T16:16:48.861Z,5.57
2022-08-30T16:19:16.497Z,5.10
2022-08-30T16:21:44.252Z,4.63
2022-08-30T16:24:14.071Z,4.97
2022-08-30T16:26:43.135Z,5.43
2022-08-30T16:29:12.510Z,4.80
2022-08-30T16:31:43.581Z,5.10
2022-08-30T16:34:14.833Z,5.03
2022-08-30T16:36:42.753Z,6.05
2022-08-30T16:39:11.167Z,4.63
2022-08-30T16:41:41.063Z,4.95
2022-08-30T16:44:08.813Z,5.18
2022-08-30T16:46:41.270Z,5.45
2022-08-30T16:49:10.507Z,5.20
2022-08-30T16:51:38.527Z,4.95
2022-08-30T16:54:07.803Z,5.22
2022-08-30T16:56:36.651Z,5.60
2022-08-30T16:59:10.919Z,4.30
2022-08-30T17:01:43.497Z,5.68
2022-08-30T17:04:15.910Z,6.40
2022-08-30T17:06:49.693Z,4.60
2022-08-30T17:09:18.617Z,4.80
2022-08-30T17:11:53.723Z,5.25
2022-08-30T17:17:11.599Z,5.70
2022-08-30T17:19:43.070Z,4.90
2022-08-30T17:22:12.867Z,6.00
2022-08-30T17:24:40.902Z,5.35
2022-08-30T17:27:08.780Z,5.13
2022-08-30T17:29:36.270Z,5.78
2022-08-30T17:32:06.301Z,5.63
2022-08-30T17:34:34.098Z,6.47
2022-08-30T17:37:01.999Z,6.20
2022-08-30T17:39:31.462Z,5.30
2022-08-30T17:41:59.116Z,5.80
2022-08-30T17:44:31.612Z,7.07
2022-08-30T17:47:03.324Z,5.90
2022-08-30T17:49:33.482Z,6.47
2022-08-30T17:52:01.730Z,6.15
2022-08-30T17:54:31.354Z,6.15
2022-08-30T17:57:00.466Z,6.40
2022-08-30T17:59:31.482Z,6.22
2022-08-30T18:01:59.729Z,7.68
2022-08-30T18:04:27.489Z,7.65
2022-08-30T18:06:55.830Z,7.13
2022-08-30T18:09:24.526Z,6.93
2022-08-30T18:11:52.572Z,6.93
2022-08-30T18:14:24.333Z,6.60
2022-08-30T18:16:54.549Z,6.68
2022-08-30T18:19:27.814Z,6.15
2022-08-30T18:21:58.864Z,6.57
2022-08-30T18:24:27.626Z,7.13
2022-08-30T18:27:03.533Z,7.95
2022-08-30T18:29:31.745Z,7.40
2022-08-30T18:32:01.063Z,7.38
2022-08-30T18:34:29.812Z,6.82
2022-08-30T18:36:57.526Z,6.43
2022-08-30T18:39:25.470Z,6.57
2022-08-30T18:41:54.676Z,6.88
2022-08-30T18:44:28.765Z,5.95
2022-08-30T18:47:00.474Z,5.88
2022-08-30T18:49:32.382Z,6.50
2022-08-30T18:52:01.934Z,6.90
2022-08-30T18:54:29.836Z,6.80
2022-08-30T18:56:57.506Z,7.05
2022-08-30T18:59:35.630Z,6.50
2022-08-30T19:02:17.505Z,6.38
2022-08-30T19:04:45.910Z,5.53
2022-08-30T19:07:15.623Z,6.90
2022-08-30T19:09:45.340Z,6.57
2022-08-30T19:12:13.995Z,6.03
2022-08-30T19:14:41.591Z,5.88
2022-08-30T19:17:09.309Z,6.25
2022-08-30T19:19:48.524Z,6.88
2022-08-30T19:22:24.005Z,6.90
2022-08-30T19:30:20.052Z,6.70
2022-08-30T19:32:51.612Z,6.85
2022-08-30T19:35:20.108Z,6.35
2022-08-30T19:37:47.732Z,6.78
2022-08-30T19:40:17.969Z,6.53
2022-08-30T19:45:34.404Z,6.45
2022-08-30T19:48:02.302Z,5.55
2022-08-30T19:50:32.323Z,6.35
2022-08-30T19:52:59.846Z,6.82
2022-08-30T19:55:31.267Z,6.80
2022-08-30T19:57:59.319Z,7.15
2022-08-30T20:00:27.297Z,7.05
2022-08-30T20:02:58.962Z,7.55
2022-08-30T20:05:27.160Z,5.80
2022-08-30T20:07:54.991Z,6.32
2022-08-30T20:10:28.968Z,6.82
2022-08-30T20:12:56.953Z,6.28
2022-08-30T20:15:25.781Z,6.60
2022-08-30T20:18:05.856Z,8.23
2022-08-30T20:20:41.985Z,6.90
2022-08-30T20:24:23.857Z,5.32
2022-08-30T20:25:51.239Z,6.47
2022-08-30T20:28:20.003Z,7.13
2022-08-30T20:30:48.427Z,8.25
2022-08-30T20:33:17.355Z,6.78
2022-08-30T20:35:48.998Z,6.68
2022-08-30T20:38:22.566Z,6.88
2022-08-30T20:40:53.100Z,6.70
2022-08-30T20:43:25.758Z,7.07
2022-08-30T20:45:55.412Z,6.82
2022-08-30T20:48:27.230Z,6.43
2022-08-30T20:50:55.114Z,6.38
2022-08-30T20:53:22.715Z,6.38
2022-08-30T20:55:50.314Z,7.78
2022-08-30T20:58:18.067Z,8.52
2022-08-30T21:00:50.464Z,6.82
2022-08-30T21:03:26.237Z,6.43
2022-08-30T21:05:56.898Z,6.95
2022-08-30T21:08:25.204Z,6.18
2022-08-30T21:10:54.283Z,5.88
2022-08-30T21:13:22.550Z,6.30
2022-08-30T21:15:54.675Z,5.72
2022-08-30T21:18:29.662Z,6.32
2022-08-30T21:20:57.546Z,5.78
2022-08-30T21:23:25.458Z,6.05
2022-08-30T21:25:53.065Z,5.60
2022-08-30T21:28:21.691Z,5.47
2022-08-30T21:30:49.239Z,6.10
2022-08-30T21:33:16.886Z,4.95
2022-08-30T21:36:02.945Z,4.40
2022-08-30T21:38:30.531Z,4.88
2022-08-30T21:41:00.598Z,6.07
2022-08-30T21:43:28.087Z,5.95
2022-08-30T21:45:55.725Z,5.38
2022-08-30T21:48:26.137Z,5.53
2022-08-30T21:50:58.401Z,5.63
2022-08-30T21:53:26.363Z,5.93
2022-08-30T21:55:53.967Z,6.35
2022-08-30T21:58:22.871Z,5.75
2022-08-30T22:00:50.578Z,5.40
2022-08-30T22:03:18.245Z,5.50
2022-08-30T22:05:52.231Z,5.80
2022-08-30T22:08:19.738Z,5.93
2022-08-30T22:10:47.336Z,5.45
2022-08-30T22:13:15.289Z,4.90
2022-08-30T22:15:45.226Z,5.63
2022-08-30T22:18:14.949Z,5.78
2022-08-30T22:20:43.276Z,4.90
2022-08-30T22:23:12.121Z,4.88
2022-08-30T22:25:44.001Z,3.95
2022-08-30T22:28:13.778Z,4.38
2022-08-30T22:30:41.609Z,4.50
2022-08-30T22:33:09.546Z,4.57
2022-08-30T22:35:37.379Z,4.20
2022-08-30T22:38:05.470Z,4.50
2022-08-30T22:40:33.093Z,4.75
2022-08-30T22:43:01.083Z,4.65
2022-08-30T22:45:29.458Z,4.10
2022-08-30T22:47:57.044Z,4.45
2022-08-30T22:50:24.588Z,5.03
2022-08-30T22:52:52.367Z,4.28
2022-08-30T22:55:19.907Z,4.88
2022-08-30T22:57:47.456Z,4.65
2022-08-30T23:00:17.760Z,5.55
2022-08-30T23:02:53.109Z,5.20
2022-08-30T23:05:23.516Z,4.45
2022-08-30T23:07:52.318Z,5.07
2022-08-30T23:10:20.020Z,4.65
2022-08-30T23:12:47.568Z,4.53
2022-08-30T23:15:16.481Z,4.05
2022-08-30T23:17:44.030Z,4.72
2022-08-30T23:20:11.726Z,5.05
2022-08-30T23:22:39.564Z,5.15
2022-08-30T23:25:26.246Z,5.38
2022-08-30T23:28:15.037Z,5.05
2022-08-30T23:31:07.050Z,4.03
2022-08-30T23:33:55.905Z,6.03
2022-08-30T23:36:44.306Z,4.75
2022-08-30T23:39:30.429Z,5.88
2022-08-30T23:42:18.976Z,5.70
2022-08-30T23:45:07.133Z,7.38
2022-08-30T23:47:53.188Z,5.45
2022-08-30T23:50:39.242Z,6.07
2022-08-30T23:53:25.716Z,8.25
2022-08-30T23:56:11.847Z,7.32
2022-08-30T23:58:58.031Z,6.95
